Time;durP1;ratioP1;P1;durP2;ratioP2;P2;SDS_P1;SDS_P2;PMS_P1;PMS_P2;Temp;Humidity;BMP_temperature;BMP_pressure;BME280_temperature;BME280_humidity;BME280_pressure;Samples;Min_cycle;Max_cycle;Signal;HPM_P1;HPM_P2
2022/03/15 00:02:06;;;;;;;5.87;4.20;;;;;;;;;;5053936;28;20510;-66
2022/03/15 00:04:32;;;;;;;7.63;4.00;;;;;;;;;;5011165;28;1191874;-67
2022/03/15 00:06:58;;;;;;;7.37;4.43;;;;;;;;;;5054771;28;20429;-66
2022/03/15 00:09:25;;;;;;;5.80;4.10;;;;;;;;;;5054895;28;20418;-62
2022/03/15 00:11:54;;;;;;;6.13;3.70;;;;;;;;;;5054763;28;20952;-67
2022/03/15 00:14:20;;;;;;;6.57;3.60;;;;;;;;;;5054726;28;20960;-67
2022/03/15 00:16:46;;;;;;;3.90;3.50;;;;;;;;;;5054529;28;20433;-63
2022/03/15 00:19:12;;;;;;;5.43;3.80;;;;;;;;;;5053373;28;20414;-68
2022/03/15 00:21:38;;;;;;;6.27;4.33;;;;;;;;;;5054715;28;20481;-62
2022/03/15 00:24:08;;;;;;;7.50;3.93;;;;;;;;;;5054356;28;20799;-62
2022/03/15 00:26:35;;;;;;;8.07;4.43;;;;;;;;;;5054572;28;20417;-63
2022/03/15 00:29:01;;;;;;;5.93;3.70;;;;;;;;;;5054389;28;20439;-62
2022/03/15 00:31:27;;;;;;;6.30;4.07;;;;;;;;;;5053962;28;20461;-62
2022/03/15 00:33:53;;;;;;;5.63;4.27;;;;;;;;;;5053942;28;20410;-63
2022/03/15 00:36:19;;;;;;;8.73;4.53;;;;;;;;;;5054313;28;20473;-62
2022/03/15 00:38:45;;;;;;;5.30;3.77;;;;;;;;;;5053307;28;20772;-62
2022/03/15 00:41:11;;;;;;;5.50;3.67;;;;;;;;;;5053135;28;20904;-62
2022/03/15 00:43:37;;;;;;;8.80;4.30;;;;;;;;;;5054215;28;20410;-67
2022/03/15 00:46:03;;;;;;;6.03;3.77;;;;;;;;;;5054126;28;20400;-66
2022/03/15 00:48:30;;;;;;;7.27;3.67;;;;;;;;;;5053909;28;20425;-66
2022/03/15 00:50:56;;;;;;;6.60;3.93;;;;;;;;;;5054134;28;20831;-67
2022/03/15 00:53:22;;;;;;;9.60;4.30;;;;;;;;;;5053967;28;20464;-66
2022/03/15 00:55:48;;;;;;;5.20;4.10;;;;;;;;;;5053764;28;20824;-66
2022/03/15 00:58:14;;;;;;;7.67;3.37;;;;;;;;;;5053875;28;20406;-63
2022/03/15 01:00:41;;;;;;;7.20;4.10;;;;;;;;;;5053935;28;20858;-67
2022/03/15 01:03:07;;;;;;;6.43;4.20;;;;;;;;;;5053792;28;20428;-67
2022/03/15 01:05:33;;;;;;;5.30;4.63;;;;;;;;;;5053558;28;20968;-63
2022/03/15 01:07:59;;;;;;;6.73;3.87;;;;;;;;;;5053760;28;20488;-68
2022/03/15 01:10:25;;;;;;;7.10;4.07;;;;;;;;;;5053749;28;20500;-67
2022/03/15 01:12:52;;;;;;;6.77;4.20;;;;;;;;;;5053536;28;20461;-66
2022/03/15 01:15:18;;;;;;;8.23;3.60;;;;;;;;;;5053667;28;20467;-68
2022/03/15 01:17:44;;;;;;;4.17;3.30;;;;;;;;;;5053442;28;20516;-67
2022/03/15 01:20:10;;;;;;;3.80;3.10;;;;;;;;;;5053587;28;20508;-66
2022/03/15 01:22:36;;;;;;;8.93;3.60;;;;;;;;;;5053338;28;20737;-62
2022/03/15 01:25:02;;;;;;;10.90;3.27;;;;;;;;;;5052095;28;20566;-62
2022/03/15 01:27:29;;;;;;;4.70;3.77;;;;;;;;;;5053448;28;20397;-63
2022/03/15 01:29:57;;;;;;;6.73;4.80;;;;;;;;;;5053461;28;20424;-63
2022/03/15 01:32:23;;;;;;;5.27;3.83;;;;;;;;;;5053107;28;20465;-62
2022/03/15 01:34:49;;;;;;;7.37;4.00;;;;;;;;;;5052082;28;20902;-63
2022/03/15 01:37:15;;;;;;;3.90;3.27;;;;;;;;;;5053193;28;20439;-63
2022/03/15 01:39:42;;;;;;;5.40;3.80;;;;;;;;;;5053274;28;20421;-67
2022/03/15 01:42:08;;;;;;;7.20;3.47;;;;;;;;;;5053122;28;20410;-67
2022/03/15 01:44:34;;;;;;;5.17;3.70;;;;;;;;;;5052827;28;20909;-66
2022/03/15 01:47:01;;;;;;;4.93;3.47;;;;;;;;;;5053067;28;20958;-67
2022/03/15 01:49:27;;;;;;;7.53;3.80;;;;;;;;;;5051837;28;20503;-67
2022/03/15 01:51:53;;;;;;;6.07;3.73;;;;;;;;;;5053006;28;20512;-67
2022/03/15 01:54:20;;;;;;;7.90;3.53;;;;;;;;;;5051782;28;20990;-68
2022/03/15 01:56:46;;;;;;;5.80;3.10;;;;;;;;;;5053004;28;20414;-67
2022/03/15 01:59:13;;;;;;;4.90;3.30;;;;;;;;;;5053095;28;20397;-66
2022/03/15 02:01:41;;;;;;;6.07;3.60;;;;;;;;;;5052982;28;20496;-65
2022/03/15 02:04:07;;;;;;;5.63;3.27;;;;;;;;;;5052779;28;20861;-61
2022/03/15 02:06:42;;;;;;;6.10;3.60;;;;;;;;;;5052706;28;20420;-65
2022/03/15 02:09:08;;;;;;;5.80;3.20;;;;;;;;;;5052895;28;20424;-65
2022/03/15 02:11:35;;;;;;;4.37;3.23;;;;;;;;;;5052790;28;20468;-66
2022/03/15 02:14:01;;;;;;;6.03;3.60;;;;;;;;;;5052823;28;20493;-64
2022/03/15 02:16:27;;;;;;;5.03;3.50;;;;;;;;;;5052761;28;20483;-64
2022/03/15 02:18:55;;;;;;;4.73;3.70;;;;;;;;;;5052790;28;20885;-66
2022/03/15 02:21:21;;;;;;;5.00;3.50;;;;;;;;;;5052742;28;20478;-61
2022/03/15 02:23:47;;;;;;;4.77;3.27;;;;;;;;;;5051455;28;20497;-61
2022/03/15 02:26:16;;;;;;;5.63;3.67;;;;;;;;;;5052575;28;21020;-62
2022/03/15 02:28:43;;;;;;;6.50;3.13;;;;;;;;;;5051395;28;20842;-61
2022/03/15 02:31:09;;;;;;;3.90;2.93;;;;;;;;;;5052465;28;20767;-62
2022/03/15 02:33:35;;;;;;;4.97;3.70;;;;;;;;;;5052612;28;20417;-62
2022/03/15 02:36:01;;;;;;;7.17;3.90;;;;;;;;;;5052676;28;20409;-66
2022/03/15 02:38:27;;;;;;;5.67;3.40;;;;;;;;;;5052650;28;20410;-66
2022/03/15 02:40:54;;;;;;;5.07;3.53;;;;;;;;;;5052613;28;20489;-65
2022/03/15 02:43:20;;;;;;;5.33;3.20;;;;;;;;;;5052578;28;20457;-67
2022/03/15 02:45:46;;;;;;;7.00;3.43;;;;;;;;;;5052501;28;20403;-67
2022/03/15 02:48:12;;;;;;;7.63;3.20;;;;;;;;;;5052432;28;20750;-67
2022/03/15 02:50:38;;;;;;;4.60;3.63;;;;;;;;;;5052519;28;20424;-66
2022/03/15 02:53:04;;;;;;;4.50;3.10;;;;;;;;;;5052296;28;20481;-66
2022/03/15 02:55:32;;;;;;;4.53;3.70;;;;;;;;;;5053458;28;20398;-64
2022/03/15 02:57:59;;;;;;;5.60;3.23;;;;;;;;;;5054927;28;20401;-67
2022/03/15 03:00:27;;;;;;;4.60;3.20;;;;;;;;;;5056089;28;20420;-68
2022/03/15 03:02:53;;;;;;;4.87;3.87;;;;;;;;;;5054729;28;20405;-66
2022/03/15 03:05:19;;;;;;;4.53;3.33;;;;;;;;;;5055682;28;20507;-67
2022/03/15 03:07:45;;;;;;;4.50;2.97;;;;;;;;;;5056018;28;20389;-67
2022/03/15 03:10:12;;;;;;;4.30;2.93;;;;;;;;;;5055870;28;20405;-64
2022/03/15 03:12:41;;;;;;;3.83;3.03;;;;;;;;;;5054620;28;20469;-68
2022/03/15 03:15:09;;;;;;;6.10;3.00;;;;;;;;;;5055769;28;20864;-68
2022/03/15 03:17:35;;;;;;;3.60;2.53;;;;;;;;;;5055673;28;20432;-67
2022/03/15 03:20:04;;;;;;;9.60;3.17;;;;;;;;;;5053007;28;20424;-67
2022/03/15 03:22:30;;;;;;;5.93;3.10;;;;;;;;;;5055291;28;20418;-61
2022/03/15 03:24:56;;;;;;;3.10;2.80;;;;;;;;;;5055458;28;20784;-61
2022/03/15 03:27:22;;;;;;;8.30;3.70;;;;;;;;;;5053739;28;20425;-61
2022/03/15 03:29:49;;;;;;;8.93;3.50;;;;;;;;;;5055549;28;20433;-61
2022/03/15 03:32:15;;;;;;;4.33;2.80;;;;;;;;;;5054126;28;20461;-63
2022/03/15 03:34:41;;;;;;;4.77;2.67;;;;;;;;;;5055390;28;20436;-62
2022/03/15 03:37:07;;;;;;;5.70;3.50;;;;;;;;;;5048970;28;20419;-67
2022/03/15 03:39:34;;;;;;;4.57;3.60;;;;;;;;;;5033721;28;20403;-66
2022/03/15 03:42:00;;;;;;;4.60;3.50;;;;;;;;;;5033140;28;20821;-68
2022/03/15 03:44:26;;;;;;;7.17;3.17;;;;;;;;;;5033107;28;20413;-67
2022/03/15 03:46:52;;;;;;;5.73;2.90;;;;;;;;;;5033716;28;20434;-66
2022/03/15 03:49:18;;;;;;;6.00;4.10;;;;;;;;;;5034528;28;20433;-68
2022/03/15 03:51:44;;;;;;;5.13;3.30;;;;;;;;;;5034298;28;20501;-69
2022/03/15 03:54:10;;;;;;;5.80;3.60;;;;;;;;;;5033089;28;20429;-68
2022/03/15 03:56:36;;;;;;;4.80;4.00;;;;;;;;;;5033722;28;20406;-64
2022/03/15 03:59:02;;;;;;;5.53;3.50;;;;;;;;;;5035055;28;20450;-67
2022/03/15 04:01:28;;;;;;;8.60;3.50;;;;;;;;;;5035051;28;20500;-67
2022/03/15 04:03:54;;;;;;;3.90;2.63;;;;;;;;;;5034660;28;20411;-67
2022/03/15 04:06:20;;;;;;;6.63;3.50;;;;;;;;;;5034413;28;20884;-67
2022/03/15 04:08:46;;;;;;;5.03;3.20;;;;;;;;;;5034311;28;20413;-68
2022/03/15 04:11:12;;;;;;;5.60;3.67;;;;;;;;;;5034698;28;20406;-68
2022/03/15 04:13:43;;;;;;;4.60;3.30;;;;;;;;;;5034775;28;20935;-69
2022/03/15 04:16:09;;;;;;;4.17;3.70;;;;;;;;;;5034602;28;20928;-69
2022/03/15 04:18:35;;;;;;;4.30;3.07;;;;;;;;;;5034739;28;20442;-68
2022/03/15 04:21:01;;;;;;;4.43;2.80;;;;;;;;;;5034697;28;20434;-67
2022/03/15 04:23:27;;;;;;;4.40;3.30;;;;;;;;;;5034561;28;20414;-67
2022/03/15 04:25:53;;;;;;;5.13;3.07;;;;;;;;;;5034501;28;20414;-70
2022/03/15 04:28:19;;;;;;;3.70;3.20;;;;;;;;;;5034470;28;20414;-69
2022/03/15 04:30:45;;;;;;;6.60;3.40;;;;;;;;;;5033404;28;20421;-62
2022/03/15 04:33:12;;;;;;;5.00;3.53;;;;;;;;;;5034275;28;20521;-69
2022/03/15 04:35:38;;;;;;;3.57;3.03;;;;;;;;;;5034555;28;20973;-68
2022/03/15 04:38:04;;;;;;;6.33;3.27;;;;;;;;;;5034482;28;20497;-68
2022/03/15 04:40:31;;;;;;;4.20;3.13;;;;;;;;;;5033136;28;20419;-68
2022/03/15 04:42:59;;;;;;;5.80;3.20;;;;;;;;;;5034106;28;20755;-69
2022/03/15 04:45:26;;;;;;;4.80;3.47;;;;;;;;;;5034108;28;20402;-68
2022/03/15 04:47:52;;;;;;;5.07;2.77;;;;;;;;;;5034181;28;20434;-69
2022/03/15 04:50:18;;;;;;;8.30;3.80;;;;;;;;;;5034222;28;20505;-69
2022/03/15 04:52:44;;;;;;;9.40;3.20;;;;;;;;;;5033915;28;20539;-69
2022/03/15 04:55:10;;;;;;;5.70;3.83;;;;;;;;;;5033977;28;20826;-68
2022/03/15 04:57:36;;;;;;;11.90;3.73;;;;;;;;;;5034095;28;20421;-66
2022/03/15 05:00:04;;;;;;;4.23;3.30;;;;;;;;;;5033962;28;20462;-68
2022/03/15 05:02:31;;;;;;;3.93;2.87;;;;;;;;;;5033838;28;20481;-67
2022/03/15 05:04:57;;;;;;;7.40;3.50;;;;;;;;;;5033546;28;20462;-69
2022/03/15 05:07:23;;;;;;;5.13;3.37;;;;;;;;;;5033827;28;20472;-68
2022/03/15 05:12:35;;;;;;;8.70;3.37;;;;;;;;;;5033823;28;20584;-69
2022/03/15 05:15:01;;;;;;;8.53;3.20;;;;;;;;;;5032458;28;20423;-68
2022/03/15 05:17:27;;;;;;;5.07;2.80;;;;;;;;;;5033493;28;20449;-67
2022/03/15 05:19:54;;;;;;;6.03;3.20;;;;;;;;;;5033333;28;20406;-68
2022/03/15 05:22:21;;;;;;;4.47;3.00;;;;;;;;;;5033631;28;20417;-62
2022/03/15 05:24:47;;;;;;;3.80;2.60;;;;;;;;;;5033444;28;20402;-68
2022/03/15 05:27:13;;;;;;;4.60;3.10;;;;;;;;;;5033329;28;20429;-62
2022/03/15 05:29:39;;;;;;;5.30;3.17;;;;;;;;;;5033577;28;20414;-64
2022/03/15 05:32:05;;;;;;;5.70;3.10;;;;;;;;;;5033446;28;20541;-62
2022/03/15 05:34:31;;;;;;;6.83;3.57;;;;;;;;;;5033388;28;20461;-66
2022/03/15 05:36:57;;;;;;;9.93;3.30;;;;;;;;;;5041417;28;20809;-67
2022/03/15 05:39:23;;;;;;;7.67;3.73;;;;;;;;;;5043022;28;20475;-67
2022/03/15 05:41:49;;;;;;;6.33;3.47;;;;;;;;;;5046537;28;20432;-67
2022/03/15 05:44:15;;;;;;;4.10;3.40;;;;;;;;;;5044544;28;20497;-68
2022/03/15 05:46:41;;;;;;;6.20;3.43;;;;;;;;;;5051661;28;20441;-70
2022/03/15 05:49:07;;;;;;;4.70;3.20;;;;;;;;;;5053149;28;20505;-66
2022/03/15 05:51:33;;;;;;;9.27;3.57;;;;;;;;;;5043266;28;20551;-66
2022/03/15 05:53:59;;;;;;;5.30;3.50;;;;;;;;;;5049309;28;20426;-69
2022/03/15 05:56:25;;;;;;;7.20;4.30;;;;;;;;;;5045404;28;20424;-68
2022/03/15 05:58:51;;;;;;;6.13;3.43;;;;;;;;;;5034720;28;20422;-68
2022/03/15 06:01:17;;;;;;;4.77;3.57;;;;;;;;;;5046386;28;20811;-70
2022/03/15 06:03:43;;;;;;;5.53;3.50;;;;;;;;;;5046484;28;20405;-72
2022/03/15 06:06:09;;;;;;;5.30;3.87;;;;;;;;;;5035082;28;20504;-73
2022/03/15 06:08:36;;;;;;;8.10;4.43;;;;;;;;;;5033123;28;20418;-71
2022/03/15 06:11:03;;;;;;;7.37;5.13;;;;;;;;;;5032957;28;20387;-70
2022/03/15 06:13:29;;;;;;;6.60;4.23;;;;;;;;;;5032904;28;21032;-71
2022/03/15 06:15:55;;;;;;;10.00;4.97;;;;;;;;;;5031802;28;20414;-70
2022/03/15 06:18:21;;;;;;;7.43;4.77;;;;;;;;;;5039932;28;20449;-70
2022/03/15 06:20:47;;;;;;;7.50;3.50;;;;;;;;;;5046396;28;20413;-69
2022/03/15 06:23:18;;;;;;;12.33;4.20;;;;;;;;;;5031882;28;20996;-66
2022/03/15 06:25:44;;;;;;;9.53;4.50;;;;;;;;;;5031940;28;20414;-68
2022/03/15 06:28:10;;;;;;;9.87;4.50;;;;;;;;;;5032069;28;20624;-67
2022/03/15 06:30:37;;;;;;;7.03;4.40;;;;;;;;;;5034188;28;20969;-71
2022/03/15 06:33:03;;;;;;;8.73;4.33;;;;;;;;;;5035380;28;20491;-73
2022/03/15 06:35:29;;;;;;;8.23;5.60;;;;;;;;;;5035323;28;20497;-69
2022/03/15 06:37:55;;;;;;;11.13;5.63;;;;;;;;;;5038875;28;20414;-67
2022/03/15 06:40:24;;;;;;;9.07;5.00;;;;;;;;;;5070625;28;20920;-70
2022/03/15 06:42:50;;;;;;;9.93;5.50;;;;;;;;;;5054050;28;20487;-67
2022/03/15 06:45:16;;;;;;;9.57;4.50;;;;;;;;;;5042868;28;20426;-70
2022/03/15 06:47:42;;;;;;;15.40;4.90;;;;;;;;;;5042991;28;20516;-65
2022/03/15 06:50:09;;;;;;;6.80;4.20;;;;;;;;;;5051127;28;20425;-67
2022/03/15 06:52:38;;;;;;;5.10;4.23;;;;;;;;;;5036134;28;20554;-66
2022/03/15 06:55:04;;;;;;;9.13;4.53;;;;;;;;;;5046222;28;20422;-68
2022/03/15 06:57:31;;;;;;;6.43;4.30;;;;;;;;;;5046214;28;20452;-65
2022/03/15 06:59:57;;;;;;;8.00;4.30;;;;;;;;;;5056183;28;20742;-68
2022/03/15 07:02:23;;;;;;;10.23;4.93;;;;;;;;;;5056136;28;20409;-70
2022/03/15 07:04:49;;;;;;;7.60;5.10;;;;;;;;;;5055819;28;20453;-68
2022/03/15 07:07:15;;;;;;;11.00;4.97;;;;;;;;;;5056002;28;20498;-67
2022/03/15 07:09:42;;;;;;;8.00;4.83;;;;;;;;;;5055994;28;20409;-70
2022/03/15 07:12:08;;;;;;;8.57;4.70;;;;;;;;;;5055844;28;21002;-66
2022/03/15 07:14:34;;;;;;;6.93;4.57;;;;;;;;;;5055954;28;20398;-63
2022/03/15 07:17:00;;;;;;;6.10;4.10;;;;;;;;;;5055808;28;20429;-62
2022/03/15 07:19:27;;;;;;;5.53;4.43;;;;;;;;;;5055949;28;20481;-64
2022/03/15 07:21:53;;;;;;;8.47;4.67;;;;;;;;;;5055869;28;20891;-64
2022/03/15 07:24:19;;;;;;;8.87;4.40;;;;;;;;;;5055849;28;20424;-62
2022/03/15 07:26:45;;;;;;;8.83;4.80;;;;;;;;;;5055612;28;20402;-65
2022/03/15 07:29:11;;;;;;;9.27;5.70;;;;;;;;;;5054509;28;20421;-66
2022/03/15 07:31:37;;;;;;;4.97;4.20;;;;;;;;;;5055528;28;20895;-68
2022/03/15 07:34:03;;;;;;;6.83;4.60;;;;;;;;;;5055613;28;20912;-68
2022/03/15 07:36:29;;;;;;;5.40;3.90;;;;;;;;;;5055518;28;20389;-62
2022/03/15 07:38:56;;;;;;;6.90;4.47;;;;;;;;;;5054290;28;20482;-69
2022/03/15 07:41:23;;;;;;;7.63;4.23;;;;;;;;;;5055098;28;20397;-67
2022/03/15 07:43:50;;;;;;;6.23;3.60;;;;;;;;;;5055340;28;20421;-64
2022/03/15 07:46:16;;;;;;;8.53;4.60;;;;;;;;;;5055180;28;20418;-65
2022/03/15 07:48:42;;;;;;;5.77;4.10;;;;;;;;;;5055330;28;20420;-72
2022/03/15 07:51:08;;;;;;;6.37;4.27;;;;;;;;;;5055276;28;20406;-69
2022/03/15 07:53:34;;;;;;;7.60;4.03;;;;;;;;;;5055115;28;20794;-70
2022/03/15 07:56:00;;;;;;;6.73;4.70;;;;;;;;;;5055221;28;20402;-67
2022/03/15 07:58:27;;;;;;;8.73;4.57;;;;;;;;;;5055239;28;20800;-75
2022/03/15 08:00:56;;;;;;;12.60;4.27;;;;;;;;;;5055057;28;20402;-67
2022/03/15 08:03:22;;;;;;;7.83;4.33;;;;;;;;;;5053692;28;20950;-68
2022/03/15 08:05:48;;;;;;;10.43;4.33;;;;;;;;;;5054607;28;20556;-64
2022/03/15 08:08:15;;;;;;;6.80;4.60;;;;;;;;;;5054979;28;20482;-62
2022/03/15 08:10:41;;;;;;;7.10;4.17;;;;;;;;;;5053694;28;20509;-65
2022/03/15 08:13:07;;;;;;;8.27;4.27;;;;;;;;;;5054748;28;20480;-64
2022/03/15 08:15:34;;;;;;;6.97;3.80;;;;;;;;;;5054675;28;20417;-64
2022/03/15 08:18:02;;;;;;;5.80;3.90;;;;;;;;;;5054451;28;20513;-63
2022/03/15 08:20:39;;;;;;;8.83;4.20;;;;;;;;;;5053669;28;20421;-64
2022/03/15 08:23:05;;;;;;;5.93;4.00;;;;;;;;;;5054587;28;20412;-67
2022/03/15 08:25:31;;;;;;;5.00;4.13;;;;;;;;;;5054475;28;20406;-66
2022/03/15 08:27:58;;;;;;;6.40;4.40;;;;;;;;;;5054578;28;20774;-63
2022/03/15 08:30:24;;;;;;;7.60;4.03;;;;;;;;;;5054475;28;20396;-65
2022/03/15 08:32:50;;;;;;;7.90;4.60;;;;;;;;;;5054227;28;20483;-68
2022/03/15 08:35:16;;;;;;;6.80;4.63;;;;;;;;;;5054368;28;20410;-64
2022/03/15 08:37:42;;;;;;;9.40;4.70;;;;;;;;;;5054426;28;20468;-68
2022/03/15 08:40:09;;;;;;;8.43;4.43;;;;;;;;;;5054194;28;20440;-64
2022/03/15 08:42:36;;;;;;;12.23;4.23;;;;;;;;;;5054084;28;20496;-65
2022/03/15 08:45:02;;;;;;;6.77;4.90;;;;;;;;;;5054179;28;20412;-70
2022/03/15 08:47:28;;;;;;;11.33;5.00;;;;;;;;;;5054040;28;20414;-69
2022/03/15 08:49:55;;;;;;;5.97;4.30;;;;;;;;;;5054133;28;20421;-66
2022/03/15 08:52:21;;;;;;;14.10;4.73;;;;;;;;;;5052560;28;20469;-68
2022/03/15 08:54:47;;;;;;;5.57;3.90;;;;;;;;;;5053585;28;20763;-65
2022/03/15 08:57:14;;;;;;;5.40;3.93;;;;;;;;;;5054074;28;20504;-65
2022/03/15 08:59:41;;;;;;;7.73;3.43;;;;;;;;;;5053904;28;20394;-64
2022/03/15 09:02:09;;;;;;;8.23;4.00;;;;;;;;;;5053912;28;20422;-67
2022/03/15 09:04:35;;;;;;;7.07;3.30;;;;;;;;;;5053558;28;20510;-65
2022/03/15 09:07:01;;;;;;;4.80;3.03;;;;;;;;;;5052632;28;20463;-64
2022/03/15 09:09:27;;;;;;;6.43;5.30;;;;;;;;;;5053792;28;20441;-71
2022/03/15 09:11:53;;;;;;;3.60;3.00;;;;;;;;;;5053485;28;20848;-67
2022/03/15 09:14:19;;;;;;;8.47;3.40;;;;;;;;;;5053688;28;20425;-67
2022/03/15 09:16:45;;;;;;;7.50;3.10;;;;;;;;;;5053620;28;20452;-63
2022/03/15 09:19:11;;;;;;;5.93;3.50;;;;;;;;;;5053581;28;20429;-64
2022/03/15 09:21:37;;;;;;;9.20;3.50;;;;;;;;;;5053510;28;20406;-71
2022/03/15 09:24:04;;;;;;;8.10;3.27;;;;;;;;;;5053398;28;20962;-67
2022/03/15 09:26:30;;;;;;;2.83;2.50;;;;;;;;;;5053396;28;20417;-68
2022/03/15 09:28:56;;;;;;;6.47;3.00;;;;;;;;;;5052098;28;20932;-64
2022/03/15 09:31:22;;;;;;;3.40;2.73;;;;;;;;;;5053195;28;20413;-65
2022/03/15 09:33:49;;;;;;;8.20;3.20;;;;;;;;;;5053512;28;20414;-69
2022/03/15 09:36:15;;;;;;;3.90;2.80;;;;;;;;;;5053292;28;20420;-66
2022/03/15 09:38:41;;;;;;;4.93;3.20;;;;;;;;;;5053363;28;20440;-64
2022/03/15 09:41:07;;;;;;;3.93;2.77;;;;;;;;;;5053191;28;20415;-63
2022/03/15 09:43:38;;;;;;;3.70;2.83;;;;;;;;;;5053144;28;20802;-63
2022/03/15 09:46:08;;;;;;;9.60;3.23;;;;;;;;;;5053000;28;20409;-66
2022/03/15 09:48:35;;;;;;;4.93;3.20;;;;;;;;;;5053321;28;20741;-68
2022/03/15 09:51:02;;;;;;;6.27;3.07;;;;;;;;;;5053122;28;20413;-63
2022/03/15 09:53:28;;;;;;;5.23;3.30;;;;;;;;;;5052953;28;20477;-65
2022/03/15 09:55:54;;;;;;;4.00;2.93;;;;;;;;;;5053116;28;20401;-66
2022/03/15 09:58:21;;;;;;;4.00;2.73;;;;;;;;;;5053124;28;20413;-64
2022/03/15 10:00:54;;;;;;;6.20;3.90;;;;;;;;;;5053112;28;20795;-64
2022/03/15 10:03:21;;;;;;;5.37;2.93;;;;;;;;;;5053126;28;20405;-65
2022/03/15 10:05:49;;;;;;;9.47;3.20;;;;;;;;;;5056232;28;20474;-65
2022/03/15 10:08:15;;;;;;;5.10;3.23;;;;;;;;;;5057209;28;20920;-64
2022/03/15 10:10:42;;;;;;;7.03;2.93;;;;;;;;;;5057136;28;20402;-66
2022/03/15 10:13:08;;;;;;;5.50;3.17;;;;;;;;;;5056992;28;20461;-65
2022/03/15 10:15:34;;;;;;;6.20;3.43;;;;;;;;;;5057090;28;20420;-65
2022/03/15 10:18:04;;;;;;;5.47;3.23;;;;;;;;;;5056912;28;20434;-63
2022/03/15 10:20:31;;;;;;;3.70;3.00;;;;;;;;;;5057018;28;20965;-64
2022/03/15 10:23:01;;;;;;;5.00;3.00;;;;;;;;;;5056793;28;20416;-69
2022/03/15 10:25:30;;;;;;;6.00;3.00;;;;;;;;;;5056907;28;20402;-71
2022/03/15 10:27:58;;;;;;;3.97;3.00;;;;;;;;;;5056882;28;20421;-66
2022/03/15 10:30:25;;;;;;;6.87;3.10;;;;;;;;;;5056867;28;20931;-70
2022/03/15 10:32:51;;;;;;;3.73;2.80;;;;;;;;;;5056722;28;20539;-67
2022/03/15 10:35:18;;;;;;;3.50;2.80;;;;;;;;;;5056812;28;20904;-70
2022/03/15 10:37:44;;;;;;;5.53;3.57;;;;;;;;;;5056535;28;20442;-67
2022/03/15 10:40:10;;;;;;;4.17;3.50;;;;;;;;;;5056611;28;20390;-65
2022/03/15 10:42:41;;;;;;;5.23;2.93;;;;;;;;;;5056570;28;20413;-63
2022/03/15 10:45:16;;;;;;;3.57;2.83;;;;;;;;;;5055229;28;20418;-65
2022/03/15 10:47:52;;;;;;;4.63;2.87;;;;;;;;;;5056366;28;20535;-65
2022/03/15 10:50:18;;;;;;;5.07;3.13;;;;;;;;;;5056542;28;20463;-65
2022/03/15 10:52:45;;;;;;;6.80;3.33;;;;;;;;;;5055004;28;20866;-66
2022/03/15 10:55:25;;;;;;;15.93;4.17;;;;;;;;;;5056306;28;20405;-68
2022/03/15 10:57:58;;;;;;;4.60;3.40;;;;;;;;;;5056414;28;20404;-64
2022/03/15 11:00:25;;;;;;;5.50;2.60;;;;;;;;;;5056313;28;20763;-67
2022/03/15 11:02:53;;;;;;;6.33;2.90;;;;;;;;;;5056266;28;20398;-65
2022/03/15 11:05:27;;;;;;;5.73;3.20;;;;;;;;;;5056001;28;20530;-65
2022/03/15 11:07:53;;;;;;;4.90;3.47;;;;;;;;;;5056072;28;20405;-64
2022/03/15 11:10:20;;;;;;;5.10;3.60;;;;;;;;;;5056106;28;20478;-67
2022/03/15 11:13:06;;;;;;;4.70;4.03;;;;;;;;;;5055772;28;20890;-65
2022/03/15 11:15:34;;;;;;;6.43;4.10;;;;;;;;;;5055937;28;20398;-65
2022/03/15 11:18:03;;;;;;;7.13;4.20;;;;;;;;;;5055454;28;20428;-64
2022/03/15 11:20:31;;;;;;;6.20;4.90;;;;;;;;;;5055886;28;20414;-67
2022/03/15 11:22:59;;;;;;;6.33;4.60;;;;;;;;;;5055542;28;20432;-69
2022/03/15 11:25:27;;;;;;;6.30;4.37;;;;;;;;;;5055632;28;20408;-72
2022/03/15 11:27:54;;;;;;;9.37;5.17;;;;;;;;;;5055763;28;20405;-67
2022/03/15 11:30:21;;;;;;;7.77;6.17;;;;;;;;;;5055644;28;20403;-66
2022/03/15 11:32:47;;;;;;;14.10;6.20;;;;;;;;;;5055442;28;20571;-71
2022/03/15 11:35:18;;;;;;;6.73;6.10;;;;;;;;;;5055588;28;20417;-68
2022/03/15 11:37:44;;;;;;;10.10;6.37;;;;;;;;;;5054326;28;20426;-68
2022/03/15 11:40:12;;;;;;;8.23;6.50;;;;;;;;;;5054201;28;20430;-65
2022/03/15 11:42:42;;;;;;;8.60;6.30;;;;;;;;;;5055345;28;20413;-65
2022/03/15 11:45:26;;;;;;;7.97;6.20;;;;;;;;;;5055408;28;20499;-69
2022/03/15 11:48:18;;;;;;;10.40;6.50;;;;;;;;;;5055332;28;20519;-63
2022/03/15 11:50:47;;;;;;;13.63;6.23;;;;;;;;;;5054497;28;20401;-64
2022/03/15 11:53:18;;;;;;;7.73;5.20;;;;;;;;;;5055077;28;20494;-66
2022/03/15 11:55:48;;;;;;;6.30;4.80;;;;;;;;;;5055153;28;20402;-64
2022/03/15 11:58:23;;;;;;;6.10;4.73;;;;;;;;;;5055224;28;20496;-65
2022/03/15 12:00:49;;;;;;;6.73;5.30;;;;;;;;;;5055028;28;20405;-64
2022/03/15 12:03:18;;;;;;;5.57;4.70;;;;;;;;;;5055010;28;20920;-65
2022/03/15 12:05:45;;;;;;;8.70;4.50;;;;;;;;;;5053533;28;20464;-64
2022/03/15 12:08:13;;;;;;;13.27;4.40;;;;;;;;;;5054935;28;20892;-66
2022/03/15 12:10:41;;;;;;;10.23;5.47;;;;;;;;;;5054992;28;20445;-66
2022/03/15 12:13:07;;;;;;;8.00;5.20;;;;;;;;;;5054944;28;20504;-65
2022/03/15 12:15:38;;;;;;;6.70;4.50;;;;;;;;;;5054962;28;20441;-66
2022/03/15 12:18:23;;;;;;;8.10;5.20;;;;;;;;;;5054869;28;20517;-69
2022/03/15 12:20:59;;;;;;;6.10;5.50;;;;;;;;;;5054715;28;20410;-66
2022/03/15 12:23:27;;;;;;;8.20;5.00;;;;;;;;;;5054849;28;20500;-65
2022/03/15 12:25:57;;;;;;;16.20;5.67;;;;;;;;;;5054523;28;20953;-68
2022/03/15 12:28:41;;;;;;;7.40;5.10;;;;;;;;;;5053569;28;20404;-71
2022/03/15 12:31:08;;;;;;;10.73;5.73;;;;;;;;;;5054463;28;20455;-68
2022/03/15 12:33:34;;;;;;;7.60;6.40;;;;;;;;;;5054366;28;20469;-70
2022/03/15 12:36:05;;;;;;;9.67;5.77;;;;;;;;;;5054413;28;20476;-71
2022/03/15 12:38:40;;;;;;;5.93;5.10;;;;;;;;;;5054338;28;20405;-66
2022/03/15 12:41:07;;;;;;;10.93;7.13;;;;;;;;;;5054380;28;20492;-63
2022/03/15 12:43:34;;;;;;;9.00;5.87;;;;;;;;;;5054137;28;20448;-69
2022/03/15 12:46:02;;;;;;;9.73;6.77;;;;;;;;;;5054254;28;20425;-64
2022/03/15 12:48:29;;;;;;;14.23;7.47;;;;;;;;;;5054237;28;20405;-64
2022/03/15 12:50:58;;;;;;;11.67;6.93;;;;;;;;;;5053016;28;20483;-65
2022/03/15 12:53:48;;;;;;;11.07;7.30;;;;;;;;;;5053917;28;20477;-67
2022/03/15 12:56:14;;;;;;;10.07;6.90;;;;;;;;;;5054081;28;20435;-63
2022/03/15 12:58:40;;;;;;;9.57;7.33;;;;;;;;;;5053989;28;20417;-64
2022/03/15 13:01:10;;;;;;;14.03;8.00;;;;;;;;;;5053959;28;20496;-64
2022/03/15 13:03:38;;;;;;;15.13;7.73;;;;;;;;;;5053894;28;20540;-66
2022/03/15 13:06:04;;;;;;;8.47;6.83;;;;;;;;;;5053666;28;20465;-66
2022/03/15 13:08:32;;;;;;;11.90;7.50;;;;;;;;;;5054036;28;20401;-64
2022/03/15 13:11:03;;;;;;;9.93;7.63;;;;;;;;;;5053893;28;20405;-68
2022/03/15 13:13:29;;;;;;;10.50;7.30;;;;;;;;;;5053745;28;20461;-68
2022/03/15 13:16:03;;;;;;;9.97;6.70;;;;;;;;;;5053686;28;20397;-63
2022/03/15 13:18:30;;;;;;;12.27;8.10;;;;;;;;;;5053711;28;20776;-68
2022/03/15 13:21:01;;;;;;;12.80;7.73;;;;;;;;;;5053597;28;20512;-67
2022/03/15 13:23:28;;;;;;;11.33;7.77;;;;;;;;;;5053621;28;20405;-65
2022/03/15 13:25:54;;;;;;;11.07;8.23;;;;;;;;;;5053450;28;20429;-66
2022/03/15 13:28:28;;;;;;;9.30;7.67;;;;;;;;;;5053453;28;20418;-66
2022/03/15 13:30:57;;;;;;;11.57;7.50;;;;;;;;;;5053350;28;20425;-66
2022/03/15 13:33:32;;;;;;;12.30;7.67;;;;;;;;;;5053228;28;20496;-65
2022/03/15 13:36:21;;;;;;;14.73;9.30;;;;;;;;;;5053271;28;20412;-68
2022/03/15 13:38:49;;;;;;;10.67;7.83;;;;;;;;;;5053071;28;20803;-63
2022/03/15 13:41:19;;;;;;;12.47;8.60;;;;;;;;;;5053100;28;20428;-64
2022/03/15 13:43:46;;;;;;;15.13;8.20;;;;;;;;;;5053232;28;20417;-67
2022/03/15 13:46:13;;;;;;;8.53;7.30;;;;;;;;;;5051571;28;20789;-63
2022/03/15 13:48:39;;;;;;;12.27;7.70;;;;;;;;;;5053162;28;20402;-64
2022/03/15 13:51:13;;;;;;;8.13;6.80;;;;;;;;;;5053086;28;20397;-69
2022/03/15 13:53:46;;;;;;;10.50;7.30;;;;;;;;;;5053044;28;20461;-66
2022/03/15 13:56:12;;;;;;;9.33;6.67;;;;;;;;;;5053082;28;20409;-64
2022/03/15 13:58:38;;;;;;;8.23;6.40;;;;;;;;;;5052911;28;20428;-65
2022/03/15 14:01:06;;;;;;;8.57;5.97;;;;;;;;;;5052896;28;20429;-64
2022/03/15 14:03:33;;;;;;;6.90;6.20;;;;;;;;;;5052872;28;20744;-64
2022/03/15 14:06:09;;;;;;;12.13;5.83;;;;;;;;;;5052838;28;20449;-63
2022/03/15 14:08:48;;;;;;;7.43;5.67;;;;;;;;;;5052948;28;20479;-66
2022/03/15 14:11:15;;;;;;;9.50;6.07;;;;;;;;;;5053000;28;20401;-64
2022/03/15 14:13:54;;;;;;;9.23;6.40;;;;;;;;;;5052765;28;20964;-64
2022/03/15 14:16:21;;;;;;;7.80;5.83;;;;;;;;;;5052748;28;20421;-65
2022/03/15 14:18:52;;;;;;;7.13;5.97;;;;;;;;;;5051537;28;20417;-64
2022/03/15 14:21:21;;;;;;;6.80;5.97;;;;;;;;;;5052760;28;20436;-63
2022/03/15 14:23:56;;;;;;;8.40;5.80;;;;;;;;;;5052791;28;20416;-73
2022/03/15 14:26:28;;;;;;;9.53;6.67;;;;;;;;;;5052848;28;20520;-68
2022/03/15 14:29:11;;;;;;;7.47;6.20;;;;;;;;;;5052774;28;20404;-68
2022/03/15 14:31:41;;;;;;;7.60;5.40;;;;;;;;;;5052597;28;20431;-63
2022/03/15 14:34:09;;;;;;;9.70;6.00;;;;;;;;;;5051454;28;20430;-64
2022/03/15 14:36:36;;;;;;;8.43;5.50;;;;;;;;;;5052678;28;20472;-71
2022/03/15 14:39:22;;;;;;;6.33;5.70;;;;;;;;;;5052568;28;20417;-72
2022/03/15 14:41:48;;;;;;;7.60;5.90;;;;;;;;;;5051525;28;20500;-73
2022/03/15 14:44:16;;;;;;;7.60;6.13;;;;;;;;;;5052643;28;20493;-72
2022/03/15 14:46:44;;;;;;;8.33;6.37;;;;;;;;;;5052465;28;20766;-69